sensor_id;sensor_type;location;lat;lon;timestamp;temperature;humidity
44509;DHT22;30214;52.246;14.408;2022-09-02T00:01:19;10.90;99.90
44509;DHT22;30214;52.246;14.408;2022-09-02T00:03:48;10.90;99.90
44509;DHT22;30214;52.246;14.408;2022-09-02T00:06:17;10.90;99.90
44509;DHT22;30214;52.246;14.408;2022-09-02T00:08:45;10.80;99.90
44509;DHT22;30214;52.246;14.408;2022-09-02T00:11:16;10.80;99.90
44509;DHT22;30214;52.246;14.408;2022-09-02T00:13:45;10.70;99.90
44509;DHT22;30214;52.246;14.408;2022-09-02T00:16:12;10.70;99.90
44509;DHT22;30214;52.246;14.408;2022-09-02T00:18:40;10.60;99.90
44509;DHT22;30214;52.246;14.408;2022-09-02T00:21:10;10.50;99.90
44509;DHT22;30214;52.246;14.408;2022-09-02T00:23:40;10.40;99.90
44509;DHT22;30214;52.246;14.408;2022-09-02T00:26:08;10.40;99.90
44509;DHT22;30214;52.246;14.408;2022-09-02T00:28:36;10.30;99.90
44509;DHT22;30214;52.246;14.408;2022-09-02T00:31:03;10.30;99.90
44509;DHT22;30214;52.246;14.408;2022-09-02T00:33:31;10.20;99.90
44509;DHT22;30214;52.246;14.408;2022-09-02T00:35:59;10.20;99.90
44509;DHT22;30214;52.246;14.408;2022-09-02T00:38:27;10.20;99.90
44509;DHT22;30214;52.246;14.408;2022-09-02T00:41:00;10.20;99.90
44509;DHT22;30214;52.246;14.408;2022-09-02T00:43:40;10.30;99.90
44509;DHT22;30214;52.246;14.408;2022-09-02T00:46:09;10.30;99.90
44509;DHT22;30214;52.246;14.408;2022-09-02T00:48:40;10.30;99.90
44509;DHT22;30214;52.246;14.408;2022-09-02T00:51:10;10.30;99.90
44509;DHT22;30214;52.246;14.408;2022-09-02T00:53:38;10.30;99.90
44509;DHT22;30214;52.246;14.408;2022-09-02T00:56:12;10.40;99.90
44509;DHT22;30214;52.246;14.408;2022-09-02T00:58:41;10.50;99.90
44509;DHT22;30214;52.246;14.408;2022-09-02T01:01:09;10.50;99.90
44509;DHT22;30214;52.246;14.408;2022-09-02T01:03:38;10.50;99.90
44509;DHT22;30214;52.246;14.408;2022-09-02T01:06:07;10.60;99.90
44509;DHT22;30214;52.246;14.408;2022-09-02T01:08:36;10.60;99.90
44509;DHT22;30214;52.246;14.408;2022-09-02T01:11:04;10.60;99.90
44509;DHT22;30214;52.246;14.408;2022-09-02T01:13:39;10.60;99.90
44509;DHT22;30214;52.246;14.408;2022-09-02T01:16:12;10.50;99.90
44509;DHT22;30214;52.246;14.408;2022-09-02T01:18:42;10.50;99.90
44509;DHT22;30214;52.246;14.408;2022-09-02T01:21:13;10.50;99.90
44509;DHT22;30214;52.246;14.408;2022-09-02T01:23:42;10.50;99.90
44509;DHT22;30214;52.246;14.408;2022-09-02T01:26:09;10.50;99.90
44509;DHT22;30214;52.246;14.408;2022-09-02T01:28:36;10.50;99.90
44509;DHT22;30214;52.246;14.408;2022-09-02T01:31:04;10.40;99.90
44509;DHT22;30214;52.246;14.408;2022-09-02T01:33:32;10.40;99.90
44509;DHT22;30214;52.246;14.408;2022-09-02T01:35:59;10.30;99.90
44509;DHT22;30214;52.246;14.408;2022-09-02T01:38:30;10.30;99.90
44509;DHT22;30214;52.246;14.408;2022-09-02T01:40:59;10.20;99.90
44509;DHT22;30214;52.246;14.408;2022-09-02T01:43:27;10.20;99.90
44509;DHT22;30214;52.246;14.408;2022-09-02T01:45:56;10.10;99.90
44509;DHT22;30214;52.246;14.408;2022-09-02T01:48:27;10.10;99.90
44509;DHT22;30214;52.246;14.408;2022-09-02T01:50:57;10.10;99.90
44509;DHT22;30214;52.246;14.408;2022-09-02T01:53:26;10.00;99.90
44509;DHT22;30214;52.246;14.408;2022-09-02T01:55:54;10.00;99.90
44509;DHT22;30214;52.246;14.408;2022-09-02T01:58:23;10.00;99.90
44509;DHT22;30214;52.246;14.408;2022-09-02T02:00:51;10.00;99.90
44509;DHT22;30214;52.246;14.408;2022-09-02T02:03:19;9.90;99.90
44509;DHT22;30214;52.246;14.408;2022-09-02T02:05:46;9.80;99.90
44509;DHT22;30214;52.246;14.408;2022-09-02T02:08:16;9.80;99.90
44509;DHT22;30214;52.246;14.408;2022-09-02T02:10:45;9.80;99.90
44509;DHT22;30214;52.246;14.408;2022-09-02T02:13:12;9.80;99.90
44509;DHT22;30214;52.246;14.408;2022-09-02T02:15:44;9.80;99.90
44509;DHT22;30214;52.246;14.408;2022-09-02T02:18:11;9.80;99.90
44509;DHT22;30214;52.246;14.408;2022-09-02T02:20:38;9.80;99.90
44509;DHT22;30214;52.246;14.408;2022-09-02T02:23:06;9.80;99.90
44509;DHT22;30214;52.246;14.408;2022-09-02T02:25:34;9.90;99.90
44509;DHT22;30214;52.246;14.408;2022-09-02T02:28:02;9.90;99.90
44509;DHT22;30214;52.246;14.408;2022-09-02T02:30:30;9.90;99.90
44509;DHT22;30214;52.246;14.408;2022-09-02T02:33:01;9.90;99.90
44509;DHT22;30214;52.246;14.408;2022-09-02T02:35:30;9.90;99.90
44509;DHT22;30214;52.246;14.408;2022-09-02T02:37:57;9.90;99.90
44509;DHT22;30214;52.246;14.408;2022-09-02T02:40:24;9.80;99.90
44509;DHT22;30214;52.246;14.408;2022-09-02T02:42:52;9.80;99.90
44509;DHT22;30214;52.246;14.408;2022-09-02T02:45:22;9.70;99.90
44509;DHT22;30214;52.246;14.408;2022-09-02T02:47:50;9.70;99.90
44509;DHT22;30214;52.246;14.408;2022-09-02T02:50:21;9.70;99.90
44509;DHT22;30214;52.246;14.408;2022-09-02T02:52:50;9.60;99.90
44509;DHT22;30214;52.246;14.408;2022-09-02T02:55:20;9.60;99.90
44509;DHT22;30214;52.246;14.408;2022-09-02T02:57:49;9.70;99.90
44509;DHT22;30214;52.246;14.408;2022-09-02T03:00:19;9.70;99.90
44509;DHT22;30214;52.246;14.408;2022-09-02T03:02:49;9.60;99.90
44509;DHT22;30214;52.246;14.408;2022-09-02T03:05:20;9.60;99.90
44509;DHT22;30214;52.246;14.408;2022-09-02T03:07:48;9.60;99.90
44509;DHT22;30214;52.246;14.408;2022-09-02T03:10:17;9.60;99.90
44509;DHT22;30214;52.246;14.408;2022-09-02T03:12:44;9.70;99.90
44509;DHT22;30214;52.246;14.408;2022-09-02T03:15:15;9.70;99.90
44509;DHT22;30214;52.246;14.408;2022-09-02T03:17:44;9.70;99.90
44509;DHT22;30214;52.246;14.408;2022-09-02T03:20:14;9.70;99.90
44509;DHT22;30214;52.246;14.408;2022-09-02T03:22:49;9.70;99.90
44509;DHT22;30214;52.246;14.408;2022-09-02T03:25:18;9.60;99.90
44509;DHT22;30214;52.246;14.408;2022-09-02T03:27:48;9.60;99.90
44509;DHT22;30214;52.246;14.408;2022-09-02T03:30:20;9.50;99.90
44509;DHT22;30214;52.246;14.408;2022-09-02T03:32:49;9.60;99.90
44509;DHT22;30214;52.246;14.408;2022-09-02T03:35:19;9.60;99.90
44509;DHT22;30214;52.246;14.408;2022-09-02T03:37:49;9.60;99.90
44509;DHT22;30214;52.246;14.408;2022-09-02T03:40:19;9.80;99.90
44509;DHT22;30214;52.246;14.408;2022-09-02T03:42:50;9.80;99.90
44509;DHT22;30214;52.246;14.408;2022-09-02T03:45:18;9.90;99.90
44509;DHT22;30214;52.246;14.408;2022-09-02T03:47:47;9.80;99.90
44509;DHT22;30214;52.246;14.408;2022-09-02T03:50:23;9.80;99.90
44509;DHT22;30214;52.246;14.408;2022-09-02T03:52:54;9.70;99.90
44509;DHT22;30214;52.246;14.408;2022-09-02T03:55:22;9.80;99.90
44509;DHT22;30214;52.246;14.408;2022-09-02T03:57:49;9.90;99.90
44509;DHT22;30214;52.246;14.408;2022-09-02T04:00:19;10.00;99.90
44509;DHT22;30214;52.246;14.408;2022-09-02T04:02:49;10.00;99.90
44509;DHT22;30214;52.246;14.408;2022-09-02T04:05:18;10.00;99.90
44509;DHT22;30214;52.246;14.408;2022-09-02T04:07:47;10.00;99.90
44509;DHT22;30214;52.246;14.408;2022-09-02T04:10:19;10.10;99.90
44509;DHT22;30214;52.246;14.408;2022-09-02T04:12:48;10.10;99.90
44509;DHT22;30214;52.246;14.408;2022-09-02T04:15:16;10.00;99.90
44509;DHT22;30214;52.246;14.408;2022-09-02T04:17:44;10.00;99.90
44509;DHT22;30214;52.246;14.408;2022-09-02T04:20:13;10.00;99.90
44509;DHT22;30214;52.246;14.408;2022-09-02T04:22:42;9.90;99.90
44509;DHT22;30214;52.246;14.408;2022-09-02T04:25:10;10.00;99.90
44509;DHT22;30214;52.246;14.408;2022-09-02T04:27:40;10.00;99.90
44509;DHT22;30214;52.246;14.408;2022-09-02T04:30:08;10.00;99.90
44509;DHT22;30214;52.246;14.408;2022-09-02T04:32:39;10.10;99.90
44509;DHT22;30214;52.246;14.408;2022-09-02T04:35:07;10.10;99.90
44509;DHT22;30214;52.246;14.408;2022-09-02T04:37:35;10.10;99.90
44509;DHT22;30214;52.246;14.408;2022-09-02T04:40:03;10.20;99.90
44509;DHT22;30214;52.246;14.408;2022-09-02T04:42:32;10.20;99.90
44509;DHT22;30214;52.246;14.408;2022-09-02T04:45:01;10.20;99.90
44509;DHT22;30214;52.246;14.408;2022-09-02T04:47:30;10.30;99.90
44509;DHT22;30214;52.246;14.408;2022-09-02T04:49:57;10.30;99.90
44509;DHT22;30214;52.246;14.408;2022-09-02T04:52:26;10.40;99.90
44509;DHT22;30214;52.246;14.408;2022-09-02T04:54:55;10.50;99.90
44509;DHT22;30214;52.246;14.408;2022-09-02T04:57:23;10.50;99.90
44509;DHT22;30214;52.246;14.408;2022-09-02T04:59:51;10.50;99.90
44509;DHT22;30214;52.246;14.408;2022-09-02T05:02:21;10.50;99.90
44509;DHT22;30214;52.246;14.408;2022-09-02T05:04:48;10.50;99.90
44509;DHT22;30214;52.246;14.408;2022-09-02T05:07:23;10.50;99.90
44509;DHT22;30214;52.246;14.408;2022-09-02T05:09:55;10.60;99.90
44509;DHT22;30214;52.246;14.408;2022-09-02T05:12:23;10.70;99.90
44509;DHT22;30214;52.246;14.408;2022-09-02T05:14:56;10.70;99.90
44509;DHT22;30214;52.246;14.408;2022-09-02T05:17:29;10.80;99.90
44509;DHT22;30214;52.246;14.408;2022-09-02T05:19:57;10.90;99.90
44509;DHT22;30214;52.246;14.408;2022-09-02T05:22:25;10.90;99.90
44509;DHT22;30214;52.246;14.408;2022-09-02T05:24:55;11.00;99.90
44509;DHT22;30214;52.246;14.408;2022-09-02T05:27:23;11.10;99.90
44509;DHT22;30214;52.246;14.408;2022-09-02T05:29:53;11.20;99.90
44509;DHT22;30214;52.246;14.408;2022-09-02T05:32:22;11.20;99.90
44509;DHT22;30214;52.246;14.408;2022-09-02T05:34:52;11.40;99.90
44509;DHT22;30214;52.246;14.408;2022-09-02T05:37:20;11.40;99.90
44509;DHT22;30214;52.246;14.408;2022-09-02T05:39:49;11.50;99.90
44509;DHT22;30214;52.246;14.408;2022-09-02T05:42:17;11.70;99.90
44509;DHT22;30214;52.246;14.408;2022-09-02T05:44:48;11.70;99.90
44509;DHT22;30214;52.246;14.408;2022-09-02T05:47:18;11.90;99.90
44509;DHT22;30214;52.246;14.408;2022-09-02T05:49:46;12.00;99.90
44509;DHT22;30214;52.246;14.408;2022-09-02T05:52:16;12.00;99.90
44509;DHT22;30214;52.246;14.408;2022-09-02T05:54:47;12.00;99.90
44509;DHT22;30214;52.246;14.408;2022-09-02T05:57:17;12.10;99.90
44509;DHT22;30214;52.246;14.408;2022-09-02T06:00:11;12.30;99.90
44509;DHT22;30214;52.246;14.408;2022-09-02T06:02:40;12.40;99.90
44509;DHT22;30214;52.246;14.408;2022-09-02T06:05:12;12.50;99.90
44509;DHT22;30214;52.246;14.408;2022-09-02T06:07:46;12.50;99.90
44509;DHT22;30214;52.246;14.408;2022-09-02T06:10:17;12.70;99.90
44509;DHT22;30214;52.246;14.408;2022-09-02T06:12:44;12.80;99.90
44509;DHT22;30214;52.246;14.408;2022-09-02T06:15:12;12.90;99.90
44509;DHT22;30214;52.246;14.408;2022-09-02T06:17:40;12.90;99.90
44509;DHT22;30214;52.246;14.408;2022-09-02T06:20:09;13.10;99.90
44509;DHT22;30214;52.246;14.408;2022-09-02T06:22:38;13.40;99.90
44509;DHT22;30214;52.246;14.408;2022-09-02T06:25:08;13.50;99.90
44509;DHT22;30214;52.246;14.408;2022-09-02T06:27:36;13.40;99.90
44509;DHT22;30214;52.246;14.408;2022-09-02T06:30:05;13.40;99.90
44509;DHT22;30214;52.246;14.408;2022-09-02T06:32:33;13.40;99.90
44509;DHT22;30214;52.246;14.408;2022-09-02T06:35:06;13.40;99.90
44509;DHT22;30214;52.246;14.408;2022-09-02T06:37:36;13.40;99.90
44509;DHT22;30214;52.246;14.408;2022-09-02T06:40:04;13.50;99.90
44509;DHT22;30214;52.246;14.408;2022-09-02T06:42:33;13.50;99.90
44509;DHT22;30214;52.246;14.408;2022-09-02T06:45:09;13.60;99.90
44509;DHT22;30214;52.246;14.408;2022-09-02T06:47:38;13.80;99.90
44509;DHT22;30214;52.246;14.408;2022-09-02T06:50:07;14.00;99.90
44509;DHT22;30214;52.246;14.408;2022-09-02T06:52:35;14.00;99.90
44509;DHT22;30214;52.246;14.408;2022-09-02T06:55:04;13.90;99.90
44509;DHT22;30214;52.246;14.408;2022-09-02T06:57:33;14.00;99.90
44509;DHT22;30214;52.246;14.408;2022-09-02T07:00:07;14.40;99.90
44509;DHT22;30214;52.246;14.408;2022-09-02T07:02:36;14.60;99.90
44509;DHT22;30214;52.246;14.408;2022-09-02T07:05:04;14.70;99.90
44509;DHT22;30214;52.246;14.408;2022-09-02T07:07:34;14.80;99.90
44509;DHT22;30214;52.246;14.408;2022-09-02T07:10:08;15.00;99.90
44509;DHT22;30214;52.246;14.408;2022-09-02T07:12:40;15.10;99.90
44509;DHT22;30214;52.246;14.408;2022-09-02T07:15:11;15.10;99.90
44509;DHT22;30214;52.246;14.408;2022-09-02T07:17:40;15.10;99.90
44509;DHT22;30214;52.246;14.408;2022-09-02T07:20:11;15.30;99.90
44509;DHT22;30214;52.246;14.408;2022-09-02T07:22:46;15.30;99.90
44509;DHT22;30214;52.246;14.408;2022-09-02T07:25:16;15.00;99.90
44509;DHT22;30214;52.246;14.408;2022-09-02T07:27:47;15.00;99.90
44509;DHT22;30214;52.246;14.408;2022-09-02T07:30:16;15.10;99.90
44509;DHT22;30214;52.246;14.408;2022-09-02T07:32:46;15.30;99.90
44509;DHT22;30214;52.246;14.408;2022-09-02T07:35:15;15.50;99.90
44509;DHT22;30214;52.246;14.408;2022-09-02T07:37:43;15.80;99.90
44509;DHT22;30214;52.246;14.408;2022-09-02T07:40:11;16.40;99.90
44509;DHT22;30214;52.246;14.408;2022-09-02T07:42:39;16.80;99.90
44509;DHT22;30214;52.246;14.408;2022-09-02T07:45:10;17.00;99.90
44509;DHT22;30214;52.246;14.408;2022-09-02T07:47:39;17.40;99.90
44509;DHT22;30214;52.246;14.408;2022-09-02T07:50:08;17.50;99.90
44509;DHT22;30214;52.246;14.408;2022-09-02T07:52:38;17.30;99.90
44509;DHT22;30214;52.246;14.408;2022-09-02T07:55:06;17.30;99.90
44509;DHT22;30214;52.246;14.408;2022-09-02T07:57:33;17.30;99.90
44509;DHT22;30214;52.246;14.408;2022-09-02T08:00:03;17.60;99.90
44509;DHT22;30214;52.246;14.408;2022-09-02T08:02:41;17.90;99.90
44509;DHT22;30214;52.246;14.408;2022-09-02T08:05:14;17.80;99.90
44509;DHT22;30214;52.246;14.408;2022-09-02T08:07:41;17.90;99.90
44509;DHT22;30214;52.246;14.408;2022-09-02T08:10:09;18.10;99.90
44509;DHT22;30214;52.246;14.408;2022-09-02T08:12:38;18.10;99.90
44509;DHT22;30214;52.246;14.408;2022-09-02T08:15:07;17.90;99.90
44509;DHT22;30214;52.246;14.408;2022-09-02T08:17:35;18.00;99.90
44509;DHT22;30214;52.246;14.408;2022-09-02T08:20:07;18.00;99.90
44509;DHT22;30214;52.246;14.408;2022-09-02T08:22:36;18.10;99.90
44509;DHT22;30214;52.246;14.408;2022-09-02T08:25:05;18.10;99.90
44509;DHT22;30214;52.246;14.408;2022-09-02T08:27:33;18.10;99.80
44509;DHT22;30214;52.246;14.408;2022-09-02T08:30:00;18.20;99.90
44509;DHT22;30214;52.246;14.408;2022-09-02T08:32:28;18.30;99.90
44509;DHT22;30214;52.246;14.408;2022-09-02T08:34:57;18.10;99.70
44509;DHT22;30214;52.246;14.408;2022-09-02T08:37:29;18.20;99.60
44509;DHT22;30214;52.246;14.408;2022-09-02T08:39:57;18.20;99.10
44509;DHT22;30214;52.246;14.408;2022-09-02T08:42:31;18.00;99.40
44509;DHT22;30214;52.246;14.408;2022-09-02T08:45:10;18.30;99.90
44509;DHT22;30214;52.246;14.408;2022-09-02T08:47:40;18.60;99.30
44509;DHT22;30214;52.246;14.408;2022-09-02T08:50:11;18.80;98.40
44509;DHT22;30214;52.246;14.408;2022-09-02T08:52:47;18.90;97.60
44509;DHT22;30214;52.246;14.408;2022-09-02T08:55:23;19.10;96.70
44509;DHT22;30214;52.246;14.408;2022-09-02T08:57:54;19.00;96.30
44509;DHT22;30214;52.246;14.408;2022-09-02T09:00:21;19.20;95.40
44509;DHT22;30214;52.246;14.408;2022-09-02T09:02:55;19.30;96.20
44509;DHT22;30214;52.246;14.408;2022-09-02T09:05:36;19.20;96.10
44509;DHT22;30214;52.246;14.408;2022-09-02T09:08:13;19.30;96.90
44509;DHT22;30214;52.246;14.408;2022-09-02T09:10:52;19.30;94.20
44509;DHT22;30214;52.246;14.408;2022-09-02T09:13:42;19.40;93.70
44509;DHT22;30214;52.246;14.408;2022-09-02T09:16:30;19.40;94.00
44509;DHT22;30214;52.246;14.408;2022-09-02T09:19:05;19.50;92.20
44509;DHT22;30214;52.246;14.408;2022-09-02T09:21:36;19.50;94.10
44509;DHT22;30214;52.246;14.408;2022-09-02T09:24:13;19.60;93.10
44509;DHT22;30214;52.246;14.408;2022-09-02T09:26:44;19.70;91.80
44509;DHT22;30214;52.246;14.408;2022-09-02T09:29:12;19.80;91.70
44509;DHT22;30214;52.246;14.408;2022-09-02T09:31:41;20.00;92.10
44509;DHT22;30214;52.246;14.408;2022-09-02T09:34:11;20.10;91.10
44509;DHT22;30214;52.246;14.408;2022-09-02T09:39:27;19.90;91.00
44509;DHT22;30214;52.246;14.408;2022-09-02T09:41:56;20.20;90.90
44509;DHT22;30214;52.246;14.408;2022-09-02T09:44:38;20.20;89.20
44509;DHT22;30214;52.246;14.408;2022-09-02T09:47:16;19.80;84.20
44509;DHT22;30214;52.246;14.408;2022-09-02T09:49:46;19.60;87.90
44509;DHT22;30214;52.246;14.408;2022-09-02T09:52:24;19.60;91.50
44509;DHT22;30214;52.246;14.408;2022-09-02T09:55:18;19.80;89.80
44509;DHT22;30214;52.246;14.408;2022-09-02T09:57:46;19.80;90.00
44509;DHT22;30214;52.246;14.408;2022-09-02T10:00:26;19.70;88.30
44509;DHT22;30214;52.246;14.408;2022-09-02T10:02:55;19.50;88.40
44509;DHT22;30214;52.246;14.408;2022-09-02T10:05:31;19.50;87.50
44509;DHT22;30214;52.246;14.408;2022-09-02T10:08:03;19.90;81.40
44509;DHT22;30214;52.246;14.408;2022-09-02T10:10:33;20.10;82.20
44509;DHT22;30214;52.246;14.408;2022-09-02T10:13:17;19.90;83.90
44509;DHT22;30214;52.246;14.408;2022-09-02T10:15:59;20.00;82.70
44509;DHT22;30214;52.246;14.408;2022-09-02T10:18:36;19.80;82.50
44509;DHT22;30214;52.246;14.408;2022-09-02T10:21:12;20.00;81.50
44509;DHT22;30214;52.246;14.408;2022-09-02T10:23:47;20.40;82.40
44509;DHT22;30214;52.246;14.408;2022-09-02T10:26:31;20.50;81.50
44509;DHT22;30214;52.246;14.408;2022-09-02T10:32:28;19.60;83.40
44509;DHT22;30214;52.246;14.408;2022-09-02T10:35:16;19.80;79.80
44509;DHT22;30214;52.246;14.408;2022-09-02T10:37:59;20.40;76.60
44509;DHT22;30214;52.246;14.408;2022-09-02T10:40:35;20.60;79.70
44509;DHT22;30214;52.246;14.408;2022-09-02T10:43:09;20.90;80.60
44509;DHT22;30214;52.246;14.408;2022-09-02T10:45:44;21.30;79.90
44509;DHT22;30214;52.246;14.408;2022-09-02T10:48:27;21.30;76.00
44509;DHT22;30214;52.246;14.408;2022-09-02T10:51:04;21.40;78.30
44509;DHT22;30214;52.246;14.408;2022-09-02T10:53:40;21.30;74.00
44509;DHT22;30214;52.246;14.408;2022-09-02T10:56:14;21.50;73.60
44509;DHT22;30214;52.246;14.408;2022-09-02T10:58:49;21.80;72.20
44509;DHT22;30214;52.246;14.408;2022-09-02T11:01:24;22.10;70.20
44509;DHT22;30214;52.246;14.408;2022-09-02T11:04:01;21.80;67.70
44509;DHT22;30214;52.246;14.408;2022-09-02T11:06:37;21.60;67.60
44509;DHT22;30214;52.246;14.408;2022-09-02T11:09:10;21.80;68.10
44509;DHT22;30214;52.246;14.408;2022-09-02T11:11:44;21.80;67.10
44509;DHT22;30214;52.246;14.408;2022-09-02T11:14:22;21.90;69.20
44509;DHT22;30214;52.246;14.408;2022-09-02T11:16:54;21.90;65.90
44509;DHT22;30214;52.246;14.408;2022-09-02T11:19:31;21.90;66.00
44509;DHT22;30214;52.246;14.408;2022-09-02T11:22:02;21.70;65.60
44509;DHT22;30214;52.246;14.408;2022-09-02T11:24:41;21.60;66.00
44509;DHT22;30214;52.246;14.408;2022-09-02T11:27:17;21.90;68.40
44509;DHT22;30214;52.246;14.408;2022-09-02T11:29:57;21.40;70.10
44509;DHT22;30214;52.246;14.408;2022-09-02T11:32:32;20.80;67.70
44509;DHT22;30214;52.246;14.408;2022-09-02T11:35:02;20.60;69.30
44509;DHT22;30214;52.246;14.408;2022-09-02T11:37:38;20.40;70.40
44509;DHT22;30214;52.246;14.408;2022-09-02T11:40:12;20.20;71.50
44509;DHT22;30214;52.246;14.408;2022-09-02T11:42:55;20.10;70.50
44509;DHT22;30214;52.246;14.408;2022-09-02T11:45:51;20.20;71.80
44509;DHT22;30214;52.246;14.408;2022-09-02T11:51:57;20.40;73.90
44509;DHT22;30214;52.246;14.408;2022-09-02T11:54:35;20.90;66.40
44509;DHT22;30214;52.246;14.408;2022-09-02T11:57:05;21.20;66.10
44509;DHT22;30214;52.246;14.408;2022-09-02T12:00:02;21.40;65.20
44509;DHT22;30214;52.246;14.408;2022-09-02T12:02:44;21.50;66.20
44509;DHT22;30214;52.246;14.408;2022-09-02T12:05:43;21.50;57.90
44509;DHT22;30214;52.246;14.408;2022-09-02T12:11:33;21.80;59.70
44509;DHT22;30214;52.246;14.408;2022-09-02T12:14:05;22.10;56.80
44509;DHT22;30214;52.246;14.408;2022-09-02T12:16:42;21.70;58.60
44509;DHT22;30214;52.246;14.408;2022-09-02T12:19:27;21.50;61.00
44509;DHT22;30214;52.246;14.408;2022-09-02T12:22:24;21.40;62.10
44509;DHT22;30214;52.246;14.408;2022-09-02T12:24:59;21.10;64.60
44509;DHT22;30214;52.246;14.408;2022-09-02T12:27:31;20.90;62.60
44509;DHT22;30214;52.246;14.408;2022-09-02T12:30:03;20.60;63.40
44509;DHT22;30214;52.246;14.408;2022-09-02T12:33:01;20.40;64.50
44509;DHT22;30214;52.246;14.408;2022-09-02T12:35:52;20.20;64.90
44509;DHT22;30214;52.246;14.408;2022-09-02T12:38:40;20.20;67.60
44509;DHT22;30214;52.246;14.408;2022-09-02T12:41:25;20.30;64.80
44509;DHT22;30214;52.246;14.408;2022-09-02T12:44:02;20.30;67.80
44509;DHT22;30214;52.246;14.408;2022-09-02T12:46:51;20.70;68.40
44509;DHT22;30214;52.246;14.408;2022-09-02T12:49:32;21.00;63.40
44509;DHT22;30214;52.246;14.408;2022-09-02T12:52:10;21.20;64.00
44509;DHT22;30214;52.246;14.408;2022-09-02T12:54:43;21.10;61.60
44509;DHT22;30214;52.246;14.408;2022-09-02T12:57:15;20.90;61.80
44509;DHT22;30214;52.246;14.408;2022-09-02T12:59:45;20.50;63.60
44509;DHT22;30214;52.246;14.408;2022-09-02T13:02:23;20.30;65.20
44509;DHT22;30214;52.246;14.408;2022-09-02T13:05:09;20.20;63.20
44509;DHT22;30214;52.246;14.408;2022-09-02T13:08:14;20.20;63.10
44509;DHT22;30214;52.246;14.408;2022-09-02T13:11:40;20.30;64.60
44509;DHT22;30214;52.246;14.408;2022-09-02T13:17:47;20.30;66.60
44509;DHT22;30214;52.246;14.408;2022-09-02T13:20:59;20.30;64.80
44509;DHT22;30214;52.246;14.408;2022-09-02T13:23:55;20.30;69.20
44509;DHT22;30214;52.246;14.408;2022-09-02T13:30:16;20.30;66.70
44509;DHT22;30214;52.246;14.408;2022-09-02T13:32:55;20.30;64.80
44509;DHT22;30214;52.246;14.408;2022-09-02T13:35:36;20.40;64.70
44509;DHT22;30214;52.246;14.408;2022-09-02T13:38:07;20.40;66.50
44509;DHT22;30214;52.246;14.408;2022-09-02T13:40:39;20.40;68.10
44509;DHT22;30214;52.246;14.408;2022-09-02T13:43:17;20.50;66.10
44509;DHT22;30214;52.246;14.408;2022-09-02T13:45:47;20.40;68.20
44509;DHT22;30214;52.246;14.408;2022-09-02T13:48:18;20.40;67.90
44509;DHT22;30214;52.246;14.408;2022-09-02T13:50:49;20.30;65.40
44509;DHT22;30214;52.246;14.408;2022-09-02T13:53:24;20.20;67.20
44509;DHT22;30214;52.246;14.408;2022-09-02T13:55:57;20.20;66.00
44509;DHT22;30214;52.246;14.408;2022-09-02T13:58:34;20.20;64.80
44509;DHT22;30214;52.246;14.408;2022-09-02T14:01:25;20.20;65.50
44509;DHT22;30214;52.246;14.408;2022-09-02T14:03:56;20.20;66.50
44509;DHT22;30214;52.246;14.408;2022-09-02T14:06:29;20.10;68.20
44509;DHT22;30214;52.246;14.408;2022-09-02T14:09:02;20.30;67.90
44509;DHT22;30214;52.246;14.408;2022-09-02T14:11:37;20.60;66.80
44509;DHT22;30214;52.246;14.408;2022-09-02T14:14:12;20.90;61.80
44509;DHT22;30214;52.246;14.408;2022-09-02T14:16:41;21.10;64.00
44509;DHT22;30214;52.246;14.408;2022-09-02T14:19:10;21.20;58.90
44509;DHT22;30214;52.246;14.408;2022-09-02T14:21:50;21.20;59.00
44509;DHT22;30214;52.246;14.408;2022-09-02T14:24:22;21.30;60.40
44509;DHT22;30214;52.246;14.408;2022-09-02T14:26:54;21.60;59.70
44509;DHT22;30214;52.246;14.408;2022-09-02T14:29:24;21.50;56.70
44509;DHT22;30214;52.246;14.408;2022-09-02T14:32:09;21.40;57.80
44509;DHT22;30214;52.246;14.408;2022-09-02T14:34:40;21.60;56.10
44509;DHT22;30214;52.246;14.408;2022-09-02T14:37:19;21.60;56.20
44509;DHT22;30214;52.246;14.408;2022-09-02T14:40:00;21.60;55.60
44509;DHT22;30214;52.246;14.408;2022-09-02T14:42:34;21.70;57.70
44509;DHT22;30214;52.246;14.408;2022-09-02T14:45:25;21.70;58.40
44509;DHT22;30214;52.246;14.408;2022-09-02T14:47:55;21.40;58.10
44509;DHT22;30214;52.246;14.408;2022-09-02T14:50:27;21.40;59.40
44509;DHT22;30214;52.246;14.408;2022-09-02T14:53:03;21.40;58.40
44509;DHT22;30214;52.246;14.408;2022-09-02T14:55:51;21.20;59.20
44509;DHT22;30214;52.246;14.408;2022-09-02T14:58:24;21.10;58.30
44509;DHT22;30214;52.246;14.408;2022-09-02T15:00:54;20.80;59.10
44509;DHT22;30214;52.246;14.408;2022-09-02T15:03:23;20.70;58.90
44509;DHT22;30214;52.246;14.408;2022-09-02T15:05:51;20.60;59.00
44509;DHT22;30214;52.246;14.408;2022-09-02T15:08:20;20.50;59.00
44509;DHT22;30214;52.246;14.408;2022-09-02T15:10:48;20.30;59.00
44509;DHT22;30214;52.246;14.408;2022-09-02T15:13:25;20.20;60.90
44509;DHT22;30214;52.246;14.408;2022-09-02T15:15:57;20.20;62.40
44509;DHT22;30214;52.246;14.408;2022-09-02T15:18:26;20.20;61.30
44509;DHT22;30214;52.246;14.408;2022-09-02T15:20:55;20.20;62.80
44509;DHT22;30214;52.246;14.408;2022-09-02T15:23:23;20.10;61.50
44509;DHT22;30214;52.246;14.408;2022-09-02T15:25:52;20.10;63.10
44509;DHT22;30214;52.246;14.408;2022-09-02T15:28:20;20.20;62.40
44509;DHT22;30214;52.246;14.408;2022-09-02T15:30:56;20.30;62.20
44509;DHT22;30214;52.246;14.408;2022-09-02T15:33:25;20.40;59.50
44509;DHT22;30214;52.246;14.408;2022-09-02T15:35:53;20.50;59.20
44509;DHT22;30214;52.246;14.408;2022-09-02T15:38:21;20.60;59.10
44509;DHT22;30214;52.246;14.408;2022-09-02T15:40:49;20.60;58.50
44509;DHT22;30214;52.246;14.408;2022-09-02T15:43:18;20.60;59.40
44509;DHT22;30214;52.246;14.408;2022-09-02T15:45:47;20.70;60.40
44509;DHT22;30214;52.246;14.408;2022-09-02T15:48:17;20.70;58.20
44509;DHT22;30214;52.246;14.408;2022-09-02T15:50:44;20.70;58.90
44509;DHT22;30214;52.246;14.408;2022-09-02T15:53:13;20.70;57.80
44509;DHT22;30214;52.246;14.408;2022-09-02T15:55:40;20.60;58.60
44509;DHT22;30214;52.246;14.408;2022-09-02T15:58:07;20.50;59.40
44509;DHT22;30214;52.246;14.408;2022-09-02T16:00:36;20.50;59.60
44509;DHT22;30214;52.246;14.408;2022-09-02T16:03:03;20.40;59.30
44509;DHT22;30214;52.246;14.408;2022-09-02T16:05:32;20.30;60.00
44509;DHT22;30214;52.246;14.408;2022-09-02T16:07:59;20.20;61.20
44509;DHT22;30214;52.246;14.408;2022-09-02T16:10:27;20.30;62.40